sensor_id;sensor_type;location;lat;lon;timestamp;pressure;altitude;pressure_sealevel;temperature;humidity
8140;BME280;4111;50.972;7.072;2024-03-07T00:00:06;101980.19;;;6.99;95.88
8140;BME280;4111;50.972;7.072;2024-03-07T00:02:50;101983.53;;;7.01;95.72
8140;BME280;4111;50.972;7.072;2024-03-07T00:05:21;101986.84;;;7.03;95.88
8140;BME280;4111;50.972;7.072;2024-03-07T00:07:51;101980.00;;;7.00;96.01
8140;BME280;4111;50.972;7.072;2024-03-07T00:10:18;101979.41;;;7.05;95.85
8140;BME280;4111;50.972;7.072;2024-03-07T00:12:44;101991.94;;;6.91;96.06
8140;BME280;4111;50.972;7.072;2024-03-07T00:15:14;101988.00;;;6.72;96.62
8140;BME280;4111;50.972;7.072;2024-03-07T00:17:41;101993.25;;;6.59;97.50
8140;BME280;4111;50.972;7.072;2024-03-07T00:20:09;101987.72;;;6.67;98.22
8140;BME280;4111;50.972;7.072;2024-03-07T00:22:41;101985.66;;;6.69;98.04
8140;BME280;4111;50.972;7.072;2024-03-07T00:25:08;101993.22;;;6.73;97.92
8140;BME280;4111;50.972;7.072;2024-03-07T00:27:37;101994.38;;;6.86;97.22
8140;BME280;4111;50.972;7.072;2024-03-07T00:30:05;101997.28;;;6.84;97.26
8140;BME280;4111;50.972;7.072;2024-03-07T00:32:35;101992.34;;;6.88;96.72
8140;BME280;4111;50.972;7.072;2024-03-07T00:35:03;101990.41;;;6.82;96.60
8140;BME280;4111;50.972;7.072;2024-03-07T00:37:29;101993.00;;;6.75;96.72
8140;BME280;4111;50.972;7.072;2024-03-07T00:39:57;101989.00;;;6.71;96.68
8140;BME280;4111;50.972;7.072;2024-03-07T00:42:24;101982.84;;;6.77;97.00
8140;BME280;4111;50.972;7.072;2024-03-07T00:44:50;101988.22;;;6.55;96.59
8140;BME280;4111;50.972;7.072;2024-03-07T00:47:17;101988.44;;;6.39;96.90
8140;BME280;4111;50.972;7.072;2024-03-07T00:49:46;101983.59;;;6.20;97.41
8140;BME280;4111;50.972;7.072;2024-03-07T00:52:13;101985.50;;;6.04;98.69
8140;BME280;4111;50.972;7.072;2024-03-07T00:54:40;101985.09;;;5.92;99.51
8140;BME280;4111;50.972;7.072;2024-03-07T00:57:07;101979.47;;;5.94;99.69
8140;BME280;4111;50.972;7.072;2024-03-07T00:59:34;101980.47;;;6.01;99.44
8140;BME280;4111;50.972;7.072;2024-03-07T01:02:01;101983.72;;;5.97;100.00
8140;BME280;4111;50.972;7.072;2024-03-07T01:04:28;101981.91;;;5.89;99.80
8140;BME280;4111;50.972;7.072;2024-03-07T01:06:57;101979.56;;;5.86;100.00
8140;BME280;4111;50.972;7.072;2024-03-07T01:09:25;101984.63;;;6.04;99.80
8140;BME280;4111;50.972;7.072;2024-03-07T01:11:52;101985.63;;;5.88;99.70
8140;BME280;4111;50.972;7.072;2024-03-07T01:14:18;101979.38;;;5.72;100.00
8140;BME280;4111;50.972;7.072;2024-03-07T01:16:44;101980.50;;;5.63;100.00
8140;BME280;4111;50.972;7.072;2024-03-07T01:19:11;101979.34;;;5.57;100.00
8140;BME280;4111;50.972;7.072;2024-03-07T01:21:37;101973.41;;;5.62;100.00
8140;BME280;4111;50.972;7.072;2024-03-07T01:24:05;101965.88;;;5.57;100.00
8140;BME280;4111;50.972;7.072;2024-03-07T01:26:32;101966.25;;;5.54;100.00
8140;BME280;4111;50.972;7.072;2024-03-07T01:29:00;101969.59;;;5.56;100.00
8140;BME280;4111;50.972;7.072;2024-03-07T01:31:26;101968.03;;;5.62;100.00
8140;BME280;4111;50.972;7.072;2024-03-07T01:33:53;101974.19;;;5.71;100.00
8140;BME280;4111;50.972;7.072;2024-03-07T01:36:20;101960.16;;;5.75;100.00
8140;BME280;4111;50.972;7.072;2024-03-07T01:38:47;101957.34;;;5.84;100.00
8140;BME280;4111;50.972;7.072;2024-03-07T01:41:14;101955.59;;;5.76;100.00
8140;BME280;4111;50.972;7.072;2024-03-07T01:43:41;101957.09;;;5.79;100.00
8140;BME280;4111;50.972;7.072;2024-03-07T01:46:08;101946.50;;;5.77;100.00
8140;BME280;4111;50.972;7.072;2024-03-07T01:48:37;101939.78;;;5.58;100.00
8140;BME280;4111;50.972;7.072;2024-03-07T01:51:04;101942.84;;;5.55;100.00
8140;BME280;4111;50.972;7.072;2024-03-07T01:53:31;101942.19;;;5.53;100.00
8140;BME280;4111;50.972;7.072;2024-03-07T01:56:02;101937.81;;;5.52;100.00
8140;BME280;4111;50.972;7.072;2024-03-07T01:58:30;101935.78;;;5.54;100.00
8140;BME280;4111;50.972;7.072;2024-03-07T02:01:00;101935.03;;;5.60;100.00
8140;BME280;4111;50.972;7.072;2024-03-07T02:03:27;101929.66;;;5.60;100.00
8140;BME280;4111;50.972;7.072;2024-03-07T02:05:53;101930.47;;;5.61;100.00
8140;BME280;4111;50.972;7.072;2024-03-07T02:08:21;101927.69;;;5.54;100.00
8140;BME280;4111;50.972;7.072;2024-03-07T02:10:47;101925.75;;;5.48;100.00
8140;BME280;4111;50.972;7.072;2024-03-07T02:13:15;101920.91;;;5.43;100.00
8140;BME280;4111;50.972;7.072;2024-03-07T02:15:42;101920.91;;;5.58;100.00
8140;BME280;4111;50.972;7.072;2024-03-07T02:18:09;101914.31;;;5.61;99.87
8140;BME280;4111;50.972;7.072;2024-03-07T02:20:36;101916.66;;;5.64;99.57
8140;BME280;4111;50.972;7.072;2024-03-07T02:23:03;101918.59;;;5.55;98.98
8140;BME280;4111;50.972;7.072;2024-03-07T02:25:30;101921.66;;;5.52;99.15
8140;BME280;4111;50.972;7.072;2024-03-07T02:27:58;101921.09;;;5.42;99.27
8140;BME280;4111;50.972;7.072;2024-03-07T02:30:24;101913.09;;;5.33;99.27
8140;BME280;4111;50.972;7.072;2024-03-07T02:32:51;101911.97;;;5.28;99.75
8140;BME280;4111;50.972;7.072;2024-03-07T02:35:21;101911.31;;;5.41;100.00
8140;BME280;4111;50.972;7.072;2024-03-07T02:37:48;101895.38;;;5.39;99.58
8140;BME280;4111;50.972;7.072;2024-03-07T02:40:14;101912.19;;;5.41;99.72
8140;BME280;4111;50.972;7.072;2024-03-07T02:42:42;101905.28;;;5.39;99.43
8140;BME280;4111;50.972;7.072;2024-03-07T02:45:08;101905.28;;;5.39;99.37
8140;BME280;4111;50.972;7.072;2024-03-07T02:47:37;101903.97;;;5.34;99.56
8140;BME280;4111;50.972;7.072;2024-03-07T02:50:05;101900.94;;;5.38;99.64
8140;BME280;4111;50.972;7.072;2024-03-07T02:52:32;101899.28;;;5.51;99.38
8140;BME280;4111;50.972;7.072;2024-03-07T02:54:59;101898.16;;;5.46;99.15
8140;BME280;4111;50.972;7.072;2024-03-07T02:57:25;101897.59;;;5.50;99.13
8140;BME280;4111;50.972;7.072;2024-03-07T02:59:51;101902.34;;;5.63;98.81
8140;BME280;4111;50.972;7.072;2024-03-07T03:02:18;101901.69;;;5.76;98.77
8140;BME280;4111;50.972;7.072;2024-03-07T03:04:44;101899.84;;;5.62;98.20
8140;BME280;4111;50.972;7.072;2024-03-07T03:07:11;101894.78;;;5.59;98.42
8140;BME280;4111;50.972;7.072;2024-03-07T03:09:37;101897.06;;;5.55;98.59
8140;BME280;4111;50.972;7.072;2024-03-07T03:12:09;101898.34;;;5.59;98.25
8140;BME280;4111;50.972;7.072;2024-03-07T03:14:36;101897.78;;;5.64;97.97
8140;BME280;4111;50.972;7.072;2024-03-07T03:17:04;101896.47;;;5.60;98.24
8140;BME280;4111;50.972;7.072;2024-03-07T03:19:30;101888.69;;;5.65;98.22
8140;BME280;4111;50.972;7.072;2024-03-07T03:21:56;101891.19;;;5.66;97.92
8140;BME280;4111;50.972;7.072;2024-03-07T03:24:23;101896.22;;;5.69;97.66
8140;BME280;4111;50.972;7.072;2024-03-07T03:26:50;101886.34;;;5.76;97.89
8140;BME280;4111;50.972;7.072;2024-03-07T03:29:16;101884.69;;;5.75;97.51
8140;BME280;4111;50.972;7.072;2024-03-07T03:31:44;101880.41;;;5.66;97.21
8140;BME280;4111;50.972;7.072;2024-03-07T03:34:11;101877.63;;;5.60;97.46
8140;BME280;4111;50.972;7.072;2024-03-07T03:36:37;101878.44;;;5.60;97.29
8140;BME280;4111;50.972;7.072;2024-03-07T03:39:04;101886.06;;;5.56;97.18
8140;BME280;4111;50.972;7.072;2024-03-07T03:41:33;101883.94;;;5.52;97.30
8140;BME280;4111;50.972;7.072;2024-03-07T03:43:59;101877.63;;;5.60;97.50
8140;BME280;4111;50.972;7.072;2024-03-07T03:46:26;101873.34;;;5.65;97.27
8140;BME280;4111;50.972;7.072;2024-03-07T03:48:52;101874.47;;;5.71;97.18
8140;BME280;4111;50.972;7.072;2024-03-07T03:51:18;101879.66;;;5.72;96.89
8140;BME280;4111;50.972;7.072;2024-03-07T03:53:47;101877.59;;;5.74;96.83
8140;BME280;4111;50.972;7.072;2024-03-07T03:56:14;101886.16;;;5.78;96.38
8140;BME280;4111;50.972;7.072;2024-03-07T03:58:42;101882.28;;;5.81;96.30
8140;BME280;4111;50.972;7.072;2024-03-07T04:01:09;101875.84;;;5.82;96.40
8140;BME280;4111;50.972;7.072;2024-03-07T04:03:39;101872.50;;;5.80;96.56
8140;BME280;4111;50.972;7.072;2024-03-07T04:06:06;101873.44;;;5.72;95.83
8140;BME280;4111;50.972;7.072;2024-03-07T04:08:33;101865.44;;;5.64;96.08
8140;BME280;4111;50.972;7.072;2024-03-07T04:11:01;101875.19;;;5.50;96.50
8140;BME280;4111;50.972;7.072;2024-03-07T04:13:27;101871.13;;;5.54;96.34
8140;BME280;4111;50.972;7.072;2024-03-07T04:15:54;101869.06;;;5.56;96.66
8140;BME280;4111;50.972;7.072;2024-03-07T04:18:20;101867.41;;;5.55;96.45
8140;BME280;4111;50.972;7.072;2024-03-07T04:20:47;101864.97;;;5.60;96.82
8140;BME280;4111;50.972;7.072;2024-03-07T04:23:14;101864.16;;;5.60;96.55
8140;BME280;4111;50.972;7.072;2024-03-07T04:25:40;101862.38;;;5.52;96.84
8140;BME280;4111;50.972;7.072;2024-03-07T04:28:07;101862.75;;;5.49;96.67
8140;BME280;4111;50.972;7.072;2024-03-07T04:30:34;101866.75;;;5.53;96.55
8140;BME280;4111;50.972;7.072;2024-03-07T04:33:00;101861.72;;;5.50;96.50
8140;BME280;4111;50.972;7.072;2024-03-07T04:35:27;101855.13;;;5.52;96.52
8140;BME280;4111;50.972;7.072;2024-03-07T04:37:53;101863.47;;;5.43;95.77
8140;BME280;4111;50.972;7.072;2024-03-07T04:40:21;101853.97;;;5.17;96.30
8140;BME280;4111;50.972;7.072;2024-03-07T04:42:48;101859.56;;;5.15;96.70
8140;BME280;4111;50.972;7.072;2024-03-07T04:45:18;101863.44;;;5.13;96.66
8140;BME280;4111;50.972;7.072;2024-03-07T04:47:45;101858.44;;;5.10;96.89
8140;BME280;4111;50.972;7.072;2024-03-07T04:50:13;101862.13;;;4.94;97.56
8140;BME280;4111;50.972;7.072;2024-03-07T04:52:43;101861.25;;;4.93;97.98
8140;BME280;4111;50.972;7.072;2024-03-07T04:55:10;101861.34;;;4.85;98.08
8140;BME280;4111;50.972;7.072;2024-03-07T04:57:37;101860.03;;;4.81;98.54
8140;BME280;4111;50.972;7.072;2024-03-07T05:00:10;101852.63;;;4.83;98.56
8140;BME280;4111;50.972;7.072;2024-03-07T05:02:41;101853.25;;;4.85;99.05
8140;BME280;4111;50.972;7.072;2024-03-07T05:05:08;101855.97;;;4.85;98.89
8140;BME280;4111;50.972;7.072;2024-03-07T05:07:35;101857.00;;;4.84;99.10
8140;BME280;4111;50.972;7.072;2024-03-07T05:10:05;101859.53;;;4.77;99.16
8140;BME280;4111;50.972;7.072;2024-03-07T05:12:32;101856.56;;;4.72;99.47
8140;BME280;4111;50.972;7.072;2024-03-07T05:14:59;101852.84;;;4.73;99.45
8140;BME280;4111;50.972;7.072;2024-03-07T05:17:26;101854.06;;;4.71;99.80
8140;BME280;4111;50.972;7.072;2024-03-07T05:19:52;101855.38;;;4.75;99.52
8140;BME280;4111;50.972;7.072;2024-03-07T05:22:19;101865.31;;;4.74;99.88
8140;BME280;4111;50.972;7.072;2024-03-07T05:24:48;101867.22;;;4.66;99.67
8140;BME280;4111;50.972;7.072;2024-03-07T05:27:16;101870.56;;;4.68;99.64
8140;BME280;4111;50.972;7.072;2024-03-07T05:29:43;101861.16;;;4.64;99.38
8140;BME280;4111;50.972;7.072;2024-03-07T05:32:23;101869.63;;;4.61;100.00
8140;BME280;4111;50.972;7.072;2024-03-07T05:34:50;101868.41;;;4.63;100.00
8140;BME280;4111;50.972;7.072;2024-03-07T05:37:16;101867.94;;;4.60;99.78
8140;BME280;4111;50.972;7.072;2024-03-07T05:39:43;101870.09;;;4.64;100.00
8140;BME280;4111;50.972;7.072;2024-03-07T05:42:09;101865.25;;;4.60;99.85
8140;BME280;4111;50.972;7.072;2024-03-07T05:44:43;101870.44;;;4.61;99.97
8140;BME280;4111;50.972;7.072;2024-03-07T05:47:10;101874.50;;;4.57;100.00
8140;BME280;4111;50.972;7.072;2024-03-07T05:49:38;101866.44;;;4.57;99.85
8140;BME280;4111;50.972;7.072;2024-03-07T05:52:05;101871.66;;;4.59;99.97
8140;BME280;4111;50.972;7.072;2024-03-07T05:54:35;101871.81;;;4.57;99.85
8140;BME280;4111;50.972;7.072;2024-03-07T05:57:02;101863.19;;;4.62;100.00
8140;BME280;4111;50.972;7.072;2024-03-07T05:59:29;101869.25;;;4.64;99.57
8140;BME280;4111;50.972;7.072;2024-03-07T06:01:55;101860.16;;;4.65;99.38
8140;BME280;4111;50.972;7.072;2024-03-07T06:04:22;101861.47;;;4.69;99.26
8140;BME280;4111;50.972;7.072;2024-03-07T06:06:48;101860.41;;;4.78;99.27
8140;BME280;4111;50.972;7.072;2024-03-07T06:09:15;101865.53;;;4.88;99.26
8140;BME280;4111;50.972;7.072;2024-03-07T06:11:47;101865.66;;;4.94;98.93
8140;BME280;4111;50.972;7.072;2024-03-07T06:14:15;101863.25;;;5.00;98.31
8140;BME280;4111;50.972;7.072;2024-03-07T06:16:42;101866.38;;;4.88;97.97
8140;BME280;4111;50.972;7.072;2024-03-07T06:19:09;101872.47;;;4.82;97.90
8140;BME280;4111;50.972;7.072;2024-03-07T06:21:38;101870.44;;;4.84;97.80
8140;BME280;4111;50.972;7.072;2024-03-07T06:24:08;101867.94;;;4.97;97.88
8140;BME280;4111;50.972;7.072;2024-03-07T06:26:38;101869.81;;;4.97;97.26
8140;BME280;4111;50.972;7.072;2024-03-07T06:29:07;101869.00;;;4.96;97.15
8140;BME280;4111;50.972;7.072;2024-03-07T06:31:34;101871.69;;;4.96;97.05
8140;BME280;4111;50.972;7.072;2024-03-07T06:34:01;101868.16;;;4.96;96.94
8140;BME280;4111;50.972;7.072;2024-03-07T06:36:27;101874.94;;;4.92;97.18
8140;BME280;4111;50.972;7.072;2024-03-07T06:38:54;101867.19;;;4.89;96.93
8140;BME280;4111;50.972;7.072;2024-03-07T06:41:21;101872.25;;;4.92;97.02
8140;BME280;4111;50.972;7.072;2024-03-07T06:43:47;101875.69;;;5.01;97.16
8140;BME280;4111;50.972;7.072;2024-03-07T06:46:16;101877.81;;;5.05;97.16
8140;BME280;4111;50.972;7.072;2024-03-07T06:48:43;101871.25;;;5.08;97.04
8140;BME280;4111;50.972;7.072;2024-03-07T06:51:10;101876.63;;;5.08;97.13
8140;BME280;4111;50.972;7.072;2024-03-07T06:53:37;101861.06;;;5.18;97.08
8140;BME280;4111;50.972;7.072;2024-03-07T06:56:03;101871.25;;;5.23;97.01
8140;BME280;4111;50.972;7.072;2024-03-07T06:58:32;101867.00;;;5.28;97.02
8140;BME280;4111;50.972;7.072;2024-03-07T07:00:59;101869.41;;;5.23;96.27
8140;BME280;4111;50.972;7.072;2024-03-07T07:03:27;101878.22;;;5.17;96.19
8140;BME280;4111;50.972;7.072;2024-03-07T07:05:58;101877.31;;;5.25;95.61
8140;BME280;4111;50.972;7.072;2024-03-07T07:08:26;101875.66;;;5.24;95.79
8140;BME280;4111;50.972;7.072;2024-03-07T07:10:52;101877.97;;;5.27;95.57
8140;BME280;4111;50.972;7.072;2024-03-07T07:13:20;101871.56;;;5.43;95.48
8140;BME280;4111;50.972;7.072;2024-03-07T07:15:48;101878.25;;;5.47;95.21
8140;BME280;4111;50.972;7.072;2024-03-07T07:18:15;101874.16;;;5.51;94.33
8140;BME280;4111;50.972;7.072;2024-03-07T07:20:43;101874.34;;;5.64;94.39
8140;BME280;4111;50.972;7.072;2024-03-07T07:23:09;101880.59;;;5.80;93.69
8140;BME280;4111;50.972;7.072;2024-03-07T07:25:36;101879.75;;;5.79;93.54
8140;BME280;4111;50.972;7.072;2024-03-07T07:28:03;101872.16;;;5.83;93.05
8140;BME280;4111;50.972;7.072;2024-03-07T07:30:34;101879.72;;;5.94;92.97
8140;BME280;4111;50.972;7.072;2024-03-07T07:33:00;101871.84;;;6.07;92.25
8140;BME280;4111;50.972;7.072;2024-03-07T07:35:27;101875.94;;;6.03;91.44
8140;BME280;4111;50.972;7.072;2024-03-07T07:37:53;101865.44;;;6.08;91.04
8140;BME280;4111;50.972;7.072;2024-03-07T07:40:22;101863.94;;;6.21;90.20
8140;BME280;4111;50.972;7.072;2024-03-07T07:42:50;101862.78;;;6.51;90.36
8140;BME280;4111;50.972;7.072;2024-03-07T07:45:21;101862.28;;;6.63;88.65
8140;BME280;4111;50.972;7.072;2024-03-07T07:47:50;101862.41;;;6.76;87.27
8140;BME280;4111;50.972;7.072;2024-03-07T07:50:19;101858.19;;;6.95;86.47
8140;BME280;4111;50.972;7.072;2024-03-07T07:52:53;101865.16;;;7.04;84.99
8140;BME280;4111;50.972;7.072;2024-03-07T07:55:22;101861.91;;;7.15;84.84
8140;BME280;4111;50.972;7.072;2024-03-07T07:57:50;101867.81;;;7.26;83.69
8140;BME280;4111;50.972;7.072;2024-03-07T08:00:24;101861.31;;;7.20;82.51
8140;BME280;4111;50.972;7.072;2024-03-07T08:02:56;101861.50;;;7.47;83.04
8140;BME280;4111;50.972;7.072;2024-03-07T08:05:24;101860.72;;;7.53;81.78
8140;BME280;4111;50.972;7.072;2024-03-07T08:07:52;101853.88;;;7.57;81.04
8140;BME280;4111;50.972;7.072;2024-03-07T08:10:19;101861.66;;;7.73;80.85
8140;BME280;4111;50.972;7.072;2024-03-07T08:12:47;101852.59;;;7.88;80.60
8140;BME280;4111;50.972;7.072;2024-03-07T08:15:15;101860.53;;;7.96;80.12
8140;BME280;4111;50.972;7.072;2024-03-07T08:17:44;101858.72;;;7.68;78.76
8140;BME280;4111;50.972;7.072;2024-03-07T08:20:16;101853.97;;;7.70;78.75
8140;BME280;4111;50.972;7.072;2024-03-07T08:22:44;101857.38;;;7.51;77.98
8140;BME280;4111;50.972;7.072;2024-03-07T08:25:14;101851.63;;;7.67;77.82
8140;BME280;4111;50.972;7.072;2024-03-07T08:27:45;101847.38;;;7.86;78.26
8140;BME280;4111;50.972;7.072;2024-03-07T08:30:12;101848.91;;;8.02;77.83
8140;BME280;4111;50.972;7.072;2024-03-07T08:32:47;101843.34;;;8.24;77.65
8140;BME280;4111;50.972;7.072;2024-03-07T08:35:13;101856.44;;;8.20;76.14
8140;BME280;4111;50.972;7.072;2024-03-07T08:37:43;101847.31;;;8.28;75.35
8140;BME280;4111;50.972;7.072;2024-03-07T08:40:12;101842.97;;;8.33;74.69
8140;BME280;4111;50.972;7.072;2024-03-07T08:42:50;101844.44;;;8.43;74.32
8140;BME280;4111;50.972;7.072;2024-03-07T08:45:25;101836.16;;;8.58;74.61
8140;BME280;4111;50.972;7.072;2024-03-07T08:47:56;101842.41;;;8.65;74.65
8140;BME280;4111;50.972;7.072;2024-03-07T08:50:25;101841.16;;;8.61;72.99
8140;BME280;4111;50.972;7.072;2024-03-07T08:52:53;101834.50;;;8.70;72.83
8140;BME280;4111;50.972;7.072;2024-03-07T08:55:22;101832.00;;;8.68;72.22
8140;BME280;4111;50.972;7.072;2024-03-07T08:57:48;101833.28;;;8.79;72.49
8140;BME280;4111;50.972;7.072;2024-03-07T09:00:17;101832.00;;;9.02;71.92
8140;BME280;4111;50.972;7.072;2024-03-07T09:02:56;101828.03;;;9.24;72.06
8140;BME280;4111;50.972;7.072;2024-03-07T09:05:30;101830.28;;;9.41;71.42
8140;BME280;4111;50.972;7.072;2024-03-07T09:07:59;101828.22;;;9.29;70.63
8140;BME280;4111;50.972;7.072;2024-03-07T09:10:26;101835.72;;;9.41;70.40
8140;BME280;4111;50.972;7.072;2024-03-07T09:12:55;101838.66;;;9.19;69.73
8140;BME280;4111;50.972;7.072;2024-03-07T09:15:23;101836.38;;;9.09;69.29
8140;BME280;4111;50.972;7.072;2024-03-07T09:17:51;101839.88;;;9.30;69.65
8140;BME280;4111;50.972;7.072;2024-03-07T09:20:19;101831.94;;;9.42;69.68
8140;BME280;4111;50.972;7.072;2024-03-07T09:22:47;101841.72;;;9.56;69.78
8140;BME280;4111;50.972;7.072;2024-03-07T09:25:17;101843.66;;;9.16;68.02
8140;BME280;4111;50.972;7.072;2024-03-07T09:27:45;101829.09;;;9.03;69.45
8140;BME280;4111;50.972;7.072;2024-03-07T09:30:12;101837.00;;;9.11;69.58
8140;BME280;4111;50.972;7.072;2024-03-07T09:32:41;101835.72;;;9.14;69.84
8140;BME280;4111;50.972;7.072;2024-03-07T09:35:09;101833.03;;;9.07;69.56
8140;BME280;4111;50.972;7.072;2024-03-07T09:37:40;101838.44;;;9.14;70.19
8140;BME280;4111;50.972;7.072;2024-03-07T09:40:09;101837.00;;;9.05;69.17
8140;BME280;4111;50.972;7.072;2024-03-07T09:42:45;101828.66;;;8.86;69.16
8140;BME280;4111;50.972;7.072;2024-03-07T09:45:15;101825.34;;;8.84;69.58
8140;BME280;4111;50.972;7.072;2024-03-07T09:47:49;101829.31;;;8.95;70.03
8140;BME280;4111;50.972;7.072;2024-03-07T09:50:18;101831.59;;;9.05;69.80
8140;BME280;4111;50.972;7.072;2024-03-07T09:52:49;101831.19;;;8.95;69.73
8140;BME280;4111;50.972;7.072;2024-03-07T09:55:18;101834.53;;;8.97;69.51
8140;BME280;4111;50.972;7.072;2024-03-07T09:57:47;101821.19;;;9.08;69.89
8140;BME280;4111;50.972;7.072;2024-03-07T10:00:18;101818.22;;;9.37;70.25
8140;BME280;4111;50.972;7.072;2024-03-07T10:03:05;101820.03;;;9.49;69.18
8140;BME280;4111;50.972;7.072;2024-03-07T10:05:33;101822.78;;;9.29;68.58
8140;BME280;4111;50.972;7.072;2024-03-07T10:08:00;101816.94;;;9.39;69.14
8140;BME280;4111;50.972;7.072;2024-03-07T10:10:27;101826.50;;;9.42;68.80
8140;BME280;4111;50.972;7.072;2024-03-07T10:12:56;101825.06;;;9.46;69.60
8140;BME280;4111;50.972;7.072;2024-03-07T10:15:29;101825.47;;;9.56;69.44
8140;BME280;4111;50.972;7.072;2024-03-07T10:17:58;101808.53;;;9.61;69.41
8140;BME280;4111;50.972;7.072;2024-03-07T10:20:26;101797.91;;;9.59;68.50
8140;BME280;4111;50.972;7.072;2024-03-07T10:22:54;101799.53;;;9.73;68.20
8140;BME280;4111;50.972;7.072;2024-03-07T10:25:22;101796.28;;;9.97;68.04
8140;BME280;4111;50.972;7.072;2024-03-07T10:27:51;101793.97;;;10.00;66.75
8140;BME280;4111;50.972;7.072;2024-03-07T10:30:19;101783.88;;;10.14;66.79
8140;BME280;4111;50.972;7.072;2024-03-07T10:32:57;101789.56;;;10.06;66.21
8140;BME280;4111;50.972;7.072;2024-03-07T10:35:26;101782.72;;;9.97;65.80
8140;BME280;4111;50.972;7.072;2024-03-07T10:37:54;101783.06;;;10.07;66.23
8140;BME280;4111;50.972;7.072;2024-03-07T10:40:21;101779.16;;;10.35;66.52
8140;BME280;4111;50.972;7.072;2024-03-07T10:42:49;101777.13;;;10.30;66.00
8140;BME280;4111;50.972;7.072;2024-03-07T10:45:19;101772.81;;;10.47;65.59
8140;BME280;4111;50.972;7.072;2024-03-07T10:47:56;101765.84;;;10.58;65.33
8140;BME280;4111;50.972;7.072;2024-03-07T10:50:30;101767.91;;;10.63;65.11
8140;BME280;4111;50.972;7.072;2024-03-07T10:53:24;101770.16;;;10.66;65.06
8140;BME280;4111;50.972;7.072;2024-03-07T10:58:40;101756.88;;;10.58;65.20
8140;BME280;4111;50.972;7.072;2024-03-07T11:01:10;101758.81;;;10.50;64.62
8140;BME280;4111;50.972;7.072;2024-03-07T11:03:37;101755.75;;;10.65;65.14
8140;BME280;4111;50.972;7.072;2024-03-07T11:06:06;101763.50;;;10.87;65.44
8140;BME280;4111;50.972;7.072;2024-03-07T11:08:37;101761.38;;;11.14;65.26
8140;BME280;4111;50.972;7.072;2024-03-07T11:11:04;101752.31;;;11.20;64.72
8140;BME280;4111;50.972;7.072;2024-03-07T11:13:31;101750.63;;;11.19;64.26
8140;BME280;4111;50.972;7.072;2024-03-07T11:16:00;101749.03;;;11.11;64.23
8140;BME280;4111;50.972;7.072;2024-03-07T11:18:27;101743.97;;;10.78;64.49
8140;BME280;4111;50.972;7.072;2024-03-07T11:20:54;101757.03;;;10.63;65.36
8140;BME280;4111;50.972;7.072;2024-03-07T11:26:06;101744.34;;;10.57;65.81
8140;BME280;4111;50.972;7.072;2024-03-07T11:28:38;101741.03;;;10.55;66.28
8140;BME280;4111;50.972;7.072;2024-03-07T11:31:15;101737.41;;;10.61;66.19
8140;BME280;4111;50.972;7.072;2024-03-07T11:33:42;101727.78;;;10.65;66.05
8140;BME280;4111;50.972;7.072;2024-03-07T11:36:11;101716.59;;;10.55;66.14
8140;BME280;4111;50.972;7.072;2024-03-07T11:38:45;101725.88;;;10.40;65.93
8140;BME280;4111;50.972;7.072;2024-03-07T11:41:13;101718.34;;;10.42;66.11
8140;BME280;4111;50.972;7.072;2024-03-07T11:43:40;101720.81;;;10.50;66.23
8140;BME280;4111;50.972;7.072;2024-03-07T11:46:09;101698.19;;;10.57;66.18
8140;BME280;4111;50.972;7.072;2024-03-07T11:48:41;101708.59;;;10.60;65.93
8140;BME280;4111;50.972;7.072;2024-03-07T11:51:12;101699.94;;;10.44;65.79
8140;BME280;4111;50.972;7.072;2024-03-07T11:53:39;101700.91;;;10.57;65.95
8140;BME280;4111;50.972;7.072;2024-03-07T11:56:06;101695.19;;;10.65;66.14
8140;BME280;4111;50.972;7.072;2024-03-07T11:58:38;101690.13;;;10.68;65.74
8140;BME280;4111;50.972;7.072;2024-03-07T12:01:08;101683.41;;;10.71;65.57
8140;BME280;4111;50.972;7.072;2024-03-07T12:03:40;101687.16;;;10.70;65.29
8140;BME280;4111;50.972;7.072;2024-03-07T12:06:08;101682.94;;;10.74;65.56
8140;BME280;4111;50.972;7.072;2024-03-07T12:08:39;101678.28;;;11.00;65.46
8140;BME280;4111;50.972;7.072;2024-03-07T12:11:07;101679.94;;;11.19;65.51
8140;BME280;4111;50.972;7.072;2024-03-07T12:13:33;101677.22;;;11.38;64.55
8140;BME280;4111;50.972;7.072;2024-03-07T12:16:01;101665.38;;;11.62;63.37
8140;BME280;4111;50.972;7.072;2024-03-07T12:18:29;101653.59;;;11.80;62.63
8140;BME280;4111;50.972;7.072;2024-03-07T12:20:55;101655.72;;;12.08;62.37
8140;BME280;4111;50.972;7.072;2024-03-07T12:23:25;101647.91;;;12.24;60.84
8140;BME280;4111;50.972;7.072;2024-03-07T12:26:03;101646.72;;;12.20;60.14
8140;BME280;4111;50.972;7.072;2024-03-07T12:28:30;101640.84;;;12.46;59.75
8140;BME280;4111;50.972;7.072;2024-03-07T12:31:02;101642.47;;;12.83;59.34
8140;BME280;4111;50.972;7.072;2024-03-07T12:33:29;101629.91;;;12.82;58.37
8140;BME280;4111;50.972;7.072;2024-03-07T12:36:02;101636.34;;;12.64;58.32
8140;BME280;4111;50.972;7.072;2024-03-07T12:38:37;101637.25;;;12.34;58.52
8140;BME280;4111;50.972;7.072;2024-03-07T12:41:07;101630.16;;;12.09;58.53
8140;BME280;4111;50.972;7.072;2024-03-07T12:43:40;101624.91;;;11.96;59.69
8140;BME280;4111;50.972;7.072;2024-03-07T12:46:11;101618.78;;;11.89;59.94
8140;BME280;4111;50.972;7.072;2024-03-07T12:48:42;101624.38;;;11.76;60.38
8140;BME280;4111;50.972;7.072;2024-03-07T12:51:10;101623.78;;;11.74;60.74
8140;BME280;4111;50.972;7.072;2024-03-07T12:53:43;101619.50;;;11.66;60.75
8140;BME280;4111;50.972;7.072;2024-03-07T12:56:09;101614.63;;;11.56;61.41
8140;BME280;4111;50.972;7.072;2024-03-07T12:58:36;101614.34;;;11.46;61.49
8140;BME280;4111;50.972;7.072;2024-03-07T13:01:02;101613.38;;;11.40;61.98
8140;BME280;4111;50.972;7.072;2024-03-07T13:03:29;101616.22;;;11.34;61.76
8140;BME280;4111;50.972;7.072;2024-03-07T13:05:58;101609.41;;;11.24;62.07
8140;BME280;4111;50.972;7.072;2024-03-07T13:08:29;101605.88;;;11.54;62.76
8140;BME280;4111;50.972;7.072;2024-03-07T13:10:56;101607.44;;;12.16;62.15
8140;BME280;4111;50.972;7.072;2024-03-07T13:13:25;101601.75;;;12.41;60.50
8140;BME280;4111;50.972;7.072;2024-03-07T13:15:51;101597.34;;;12.40;60.00
8140;BME280;4111;50.972;7.072;2024-03-07T13:18:21;101596.78;;;12.26;59.41
8140;BME280;4111;50.972;7.072;2024-03-07T13:20:48;101589.66;;;12.01;59.33
8140;BME280;4111;50.972;7.072;2024-03-07T13:23:14;101593.66;;;11.87;59.37
8140;BME280;4111;50.972;7.072;2024-03-07T13:25:41;101591.47;;;11.65;59.65
8140;BME280;4111;50.972;7.072;2024-03-07T13:28:14;101588.28;;;11.68;60.59